Terminal Aerodrome Forecast
Issued by NWS Wilmington, OH

Current Version | Previous Version | Graphics & Text | Print | Product List | Glossary On
Versions: 1 2 3 4 5 6 7 8 9 10 11 12 13 14 15 16 17 18 19 20 21 22 23 24 25 26 27 28 29 30 31 32
000
FTUS41 KILN 161300 AAA
TAFILN
TAF AMD
KILN 161336Z 1614/1712 24012KT P6SM VCSH OVC012
     FM161600 24014G22KT P6SM VCSH OVC012
     FM162000 25014G22KT P6SM OVC012
     FM170600 26012KT P6SM OVC015=

USA.gov is the U.S. government's official web portal to all federal, state and local government web resources and services.